• Join FlightAware (Why Join?)
  • Login
  • US Flag 
02:23PM EDT


 

Airport Tracker/Info


-or-


 

Live Flight TrackerFlight Track Log ✈ ASQ5564 ✈ 09-May-2013 ✈ KATL - KGPT

Flight Track Log - Related Links

Times and Time Zones

All times are in EDT time to prevent confusion due to time zone crossing. See the ASQ5564 flight status page for this flight to view local times or setup timezone preferences in your user account.

Time Position Orientation Groundspeed Altitude Reporting Facility
EDT Latitude Longitude Course Direction KTS MPH feet Rate Location/Type
08:33AM 33.6475 -84.4731 283° West 387 445 2,600  Level Atlanta Center
08:34AM 33.6617 -84.5481 283° West 268 308 4,900 2,640 Climbing Atlanta Center
08:35AM 33.6781 -84.6431 282° West 268 308 7,900 2,520 Climbing Atlanta Center
08:36AM 33.6817 -84.7353 273° West 279 321 10,000 1,620 Climbing Atlanta Center
08:37AM 33.6392 -84.8372 243° Southwest 301 346 11,200 1,500 Climbing Atlanta Center
08:38AM 33.5928 -84.9392 241° Southwest 342 394 13,100 1,860 Climbing Atlanta Center
08:39AM 33.5522 -85.0383 244° Southwest 347 399 15,000 1,680 Climbing Atlanta Center
08:40AM 33.5056 -85.1450 242° Southwest 347 399 16,500 1,380 Climbing Atlanta Center
08:41AM 33.4689 -85.2542 248° West 352 405 17,800 1,260 Climbing Atlanta Center
08:42AM 33.4492 -85.3583 257° West 357 411 19,100 1,380 Climbing Atlanta Center
08:43AM 33.4247 -85.4750 256° West 357 411 20,600 1,260 Climbing Atlanta Center
08:44AM 33.4025 -85.5939 257° West 362 417 21,700 1,080 Climbing Atlanta Center
08:45AM 33.3758 -85.7131 255° West 367 422 22,800 1,020 Climbing Atlanta Center
08:46AM 33.3158 -85.8261 238° Southwest 359 413 23,800 960 Climbing Atlanta Center
08:47AM 33.2394 -85.9164 225° Southwest 380 437 24,800 1,020 Climbing Atlanta Center
08:48AM 33.1586 -86.0089 224° Southwest 391 450 25,900 1,020 Climbing Atlanta Center
08:49AM 33.0819 -86.0989 225° Southwest 391 450 26,900 960 Climbing Atlanta Center
08:50AM 33.0033 -86.1889 224° Southwest 396 456 27,900 540 Climbing Atlanta Center
08:51AM 32.9242 -86.2833 225° Southwest 396 456 28,000  Climbing Atlanta Center
08:52AM 32.8433 -86.3728 223° Southwest 396 456 28,000  Level Atlanta Center
08:53AM 32.7622 -86.4694 225° Southwest 403 464 28,000  Level Atlanta Center
08:54AM 32.6831 -86.5611 224° Southwest 398 458 28,000  Level Atlanta Center
08:55AM 32.6039 -86.6525 224° Southwest 398 458 28,000  Level Atlanta Center
08:56AM 32.5311 -86.7342 223° Southwest 398 458 28,000  Level Atlanta Center
08:57AM 32.4519 -86.8253 224° Southwest 403 464 28,000  Level Atlanta Center
08:58AM 32.3728 -86.9161 224° Southwest 403 464 28,000  Level Atlanta Center
08:59AM 32.2911 -87.0069 223° Southwest 403 464 28,000  Level Atlanta Center
09:00AM 32.2117 -87.0975 224° Southwest 403 464 28,000  Level Atlanta Center
09:01AM 32.1303 -87.1881 223° Southwest 408 470 28,000  Level Atlanta Center
09:02AM 32.0506 -87.2758 223° Southwest 408 470 28,000  Level Atlanta Center
09:03AM 31.9689 -87.3658 223° Southwest 408 470 28,000  Level Atlanta Center
09:05AM 31.8497 -87.4994 224° Southwest 401 461 28,000  Level Houston Center
09:06AM 31.7522 -87.6058 223° Southwest 400 460 28,000  Level Houston Center
09:07AM 31.6717 -87.6964 224° Southwest 400 460 28,000  Level Houston Center
09:08AM 31.5900 -87.7858 223° Southwest 401 461 28,000  Level Houston Center
09:09AM 31.5092 -87.8764 224° Southwest 402 463 28,000  Level Houston Center
09:10AM 31.4289 -87.9650 223° Southwest 400 460 28,000 -240 Level Houston Center
09:11AM 31.3481 -88.0544 223° Southwest 401 461 27,600 -1,560 Descending Houston Center
09:12AM 31.2506 -88.1608 223° Southwest 404 465 24,800 -2,520 Descending Houston Center
09:13AM 31.1719 -88.2469 223° Southwest 394 453 22,500 -2,220 Descending Houston Center
09:14AM 31.0969 -88.3278 223° Southwest 379 436 20,300 -2,220 Descending Houston Center
09:15AM 31.0239 -88.4069 223° Southwest 367 422 18,000 -2,340 Descending Houston Center
09:16AM 30.9358 -88.5019 223° Southwest 363 418 15,500 -2,280 Descending Houston Center
09:17AM 30.8644 -88.5781 222° Southwest 349 402 13,400 -1,920 Descending Houston Center
09:18AM 30.7947 -88.6533 223° Southwest 343 395 11,600 -1,200 Descending Houston Center
09:19AM 30.7281 -88.7256 223° Southwest 332 382 11,000 -300 Descending Houston Center
09:20AM 30.6650 -88.7939 223° Southwest 316 364 11,000 -960 Level Houston Center
09:21AM 30.6044 -88.8842 232° Southwest 297 342 9,100 -1,860 Descending Houston Center
09:22AM 30.5639 -88.9511 235° Southwest 277 319 7,200 -1,800 Descending Houston Center
09:23AM 30.5250 -89.0147 235° Southwest 249 287 5,400 -1,680 Descending Houston Center
09:24AM 30.5089 -89.0769 253° West 209 241 3,800 -1,620 Descending Houston Center
09:25AM 30.4928 -89.1339 252° West 191 220 2,100 -1,380 Descending Houston Center
09:27AM 30.4467 -89.1194 165° South 154 177 1,000 -720 Descending Houston Center
09:28AM 30.4239 -89.0925 134° Southeast 143 165 700 -300 Descending Houston Center
09:30AM 30.4000 -89.0667 221° Southwest  Level FlightAware Approximate
09:37AM 30.4073 -89.0701 221° Southwest  Level Estimated